sensor_id;sensor_type;location;lat;lon;timestamp;pressure;altitude;pressure_sealevel;temperature;humidity
48872;BME280;36154;51.674;7.824;2023-02-23T00:00:29;100424.94;;;20.20;54.91
48872;BME280;36154;51.674;7.824;2023-02-23T00:02:58;100429.09;;;20.24;54.96
48872;BME280;36154;51.674;7.824;2023-02-23T00:05:27;100437.69;;;20.25;54.90
48872;BME280;36154;51.674;7.824;2023-02-23T00:07:53;100430.88;;;20.22;54.97
48872;BME280;36154;51.674;7.824;2023-02-23T00:10:18;100435.97;;;20.25;54.88
48872;BME280;36154;51.674;7.824;2023-02-23T00:12:48;100439.44;;;20.24;54.81
48872;BME280;36154;51.674;7.824;2023-02-23T00:15:16;100436.03;;;20.24;54.85
48872;BME280;36154;51.674;7.824;2023-02-23T00:17:42;100430.84;;;20.24;54.87
48872;BME280;36154;51.674;7.824;2023-02-23T00:20:09;100423.94;;;20.24;54.77
48872;BME280;36154;51.674;7.824;2023-02-23T00:22:39;100434.28;;;20.24;54.73
48872;BME280;36154;51.674;7.824;2023-02-23T00:25:06;100430.88;;;20.22;54.96
48872;BME280;36154;51.674;7.824;2023-02-23T00:27:32;100430.88;;;20.22;54.91
48872;BME280;36154;51.674;7.824;2023-02-23T00:29:57;100435.19;;;20.23;54.82
48872;BME280;36154;51.674;7.824;2023-02-23T00:32:22;100434.28;;;20.24;54.76
48872;BME280;36154;51.674;7.824;2023-02-23T00:34:48;100430.88;;;20.22;54.89
48872;BME280;36154;51.674;7.824;2023-02-23T00:37:14;100425.72;;;20.22;54.77
48872;BME280;36154;51.674;7.824;2023-02-23T00:39:40;100425.72;;;20.22;54.83
48872;BME280;36154;51.674;7.824;2023-02-23T00:42:05;100426.59;;;20.21;54.79
48872;BME280;36154;51.674;7.824;2023-02-23T00:44:31;100423.13;;;20.22;54.47
48872;BME280;36154;51.674;7.824;2023-02-23T00:46:58;100419.72;;;20.22;54.70
48872;BME280;36154;51.674;7.824;2023-02-23T00:49:23;100423.13;;;20.22;54.81
48872;BME280;36154;51.674;7.824;2023-02-23T00:51:49;100419.72;;;20.22;54.84
48872;BME280;36154;51.674;7.824;2023-02-23T00:54:15;100412.78;;;20.22;54.80
48872;BME280;36154;51.674;7.824;2023-02-23T00:56:41;100412.00;;;20.20;54.69
48872;BME280;36154;51.674;7.824;2023-02-23T00:59:06;100414.53;;;20.22;54.74
48872;BME280;36154;51.674;7.824;2023-02-23T01:01:31;100413.66;;;20.21;54.76
48872;BME280;36154;51.674;7.824;2023-02-23T01:03:57;100424.88;;;20.22;54.66
48872;BME280;36154;51.674;7.824;2023-02-23T01:06:22;100420.59;;;20.21;54.74
48872;BME280;36154;51.674;7.824;2023-02-23T01:08:49;100412.00;;;20.20;54.66
48872;BME280;36154;51.674;7.824;2023-02-23T01:11:18;100420.59;;;20.21;54.61
48872;BME280;36154;51.674;7.824;2023-02-23T01:13:50;100412.81;;;20.21;54.54
48872;BME280;36154;51.674;7.824;2023-02-23T01:16:18;100415.47;;;20.19;54.60
48872;BME280;36154;51.674;7.824;2023-02-23T01:18:44;100417.16;;;20.20;54.68
48872;BME280;36154;51.674;7.824;2023-02-23T01:21:22;100418.88;;;20.20;54.72
48872;BME280;36154;51.674;7.824;2023-02-23T01:23:48;100420.59;;;20.21;54.64
48872;BME280;36154;51.674;7.824;2023-02-23T01:26:19;100418.94;;;20.18;54.57
48872;BME280;36154;51.674;7.824;2023-02-23T01:28:50;100416.28;;;20.20;54.76
48872;BME280;36154;51.674;7.824;2023-02-23T01:31:15;100420.63;;;20.19;54.60
48872;BME280;36154;51.674;7.824;2023-02-23T01:33:40;100425.81;;;20.19;54.77
48872;BME280;36154;51.674;7.824;2023-02-23T01:36:09;100419.88;;;20.16;54.57
48872;BME280;36154;51.674;7.824;2023-02-23T01:38:34;100430.97;;;20.19;54.64
48872;BME280;36154;51.674;7.824;2023-02-23T01:41:00;100424.97;;;20.19;54.54
48872;BME280;36154;51.674;7.824;2023-02-23T01:43:25;100424.09;;;20.18;54.77
48872;BME280;36154;51.674;7.824;2023-02-23T01:45:55;100420.63;;;20.19;54.71
48872;BME280;36154;51.674;7.824;2023-02-23T01:48:27;100420.72;;;20.16;54.57
48872;BME280;36154;51.674;7.824;2023-02-23T01:50:59;100423.22;;;20.19;54.72
48872;BME280;36154;51.674;7.824;2023-02-23T01:53:29;100425.81;;;20.19;54.73
48872;BME280;36154;51.674;7.824;2023-02-23T01:56:01;100424.09;;;20.18;54.61
48872;BME280;36154;51.674;7.824;2023-02-23T01:58:28;100427.56;;;20.19;54.60
48872;BME280;36154;51.674;7.824;2023-02-23T02:00:56;100424.09;;;20.18;54.48
48872;BME280;36154;51.674;7.824;2023-02-23T02:03:34;100416.34;;;20.18;54.58
48872;BME280;36154;51.674;7.824;2023-02-23T02:06:01;100417.22;;;20.19;54.43
48872;BME280;36154;51.674;7.824;2023-02-23T02:08:29;100418.94;;;20.18;54.46
48872;BME280;36154;51.674;7.824;2023-02-23T02:10:55;100424.97;;;20.19;54.63
48872;BME280;36154;51.674;7.824;2023-02-23T02:13:26;100416.34;;;20.18;54.51
48872;BME280;36154;51.674;7.824;2023-02-23T02:16:16;100413.75;;;20.18;54.51
48872;BME280;36154;51.674;7.824;2023-02-23T02:18:52;100418.09;;;20.18;54.59
48872;BME280;36154;51.674;7.824;2023-02-23T02:24:17;100412.13;;;20.16;54.70
48872;BME280;36154;51.674;7.824;2023-02-23T02:27:04;100411.34;;;20.13;54.59
48872;BME280;36154;51.674;7.824;2023-02-23T02:30:02;100411.34;;;20.13;54.61
48872;BME280;36154;51.674;7.824;2023-02-23T02:38:54;100399.28;;;20.12;54.59
48872;BME280;36154;51.674;7.824;2023-02-23T02:42:32;100405.28;;;20.13;54.66
48872;BME280;36154;51.674;7.824;2023-02-23T02:47:40;100405.28;;;20.13;54.59
48872;BME280;36154;51.674;7.824;2023-02-23T02:52:42;100405.28;;;20.13;54.31
48872;BME280;36154;51.674;7.824;2023-02-23T02:55:16;100400.13;;;20.13;54.63
48872;BME280;36154;51.674;7.824;2023-02-23T02:57:44;100392.38;;;20.13;54.50
48872;BME280;36154;51.674;7.824;2023-02-23T03:00:21;100387.22;;;20.11;54.49
48872;BME280;36154;51.674;7.824;2023-02-23T03:03:05;100391.47;;;20.14;54.62
48872;BME280;36154;51.674;7.824;2023-02-23T03:05:50;100394.06;;;20.14;54.52
48872;BME280;36154;51.674;7.824;2023-02-23T03:08:45;100388.94;;;20.12;54.42
48872;BME280;36154;51.674;7.824;2023-02-23T03:11:37;100394.13;;;20.12;54.61
48872;BME280;36154;51.674;7.824;2023-02-23T03:14:54;100393.28;;;20.12;54.53
48872;BME280;36154;51.674;7.824;2023-02-23T03:17:45;100389.78;;;20.13;54.51
48872;BME280;36154;51.674;7.824;2023-02-23T03:20:38;100398.44;;;20.12;54.53
48872;BME280;36154;51.674;7.824;2023-02-23T03:23:52;100395.88;;;20.12;54.63
48872;BME280;36154;51.674;7.824;2023-02-23T03:26:58;100392.41;;;20.11;54.42
48872;BME280;36154;51.674;7.824;2023-02-23T03:30:04;100402.81;;;20.10;54.62
48872;BME280;36154;51.674;7.824;2023-02-23T03:32:53;100402.75;;;20.11;54.13
48872;BME280;36154;51.674;7.824;2023-02-23T03:35:44;100396.75;;;20.11;54.45
48872;BME280;36154;51.674;7.824;2023-02-23T03:38:35;100395.06;;;20.10;54.61
48872;BME280;36154;51.674;7.824;2023-02-23T03:41:22;100401.91;;;20.11;54.48
48872;BME280;36154;51.674;7.824;2023-02-23T03:44:14;100401.91;;;20.11;54.54
48872;BME280;36154;51.674;7.824;2023-02-23T03:47:00;100397.66;;;20.10;54.50
48872;BME280;36154;51.674;7.824;2023-02-23T03:49:48;100390.72;;;20.10;54.63
48872;BME280;36154;51.674;7.824;2023-02-23T03:52:39;100400.25;;;20.10;54.58
48872;BME280;36154;51.674;7.824;2023-02-23T03:55:30;100396.75;;;20.11;54.40
48872;BME280;36154;51.674;7.824;2023-02-23T03:58:21;100397.66;;;20.10;54.50
48872;BME280;36154;51.674;7.824;2023-02-23T04:01:08;100397.66;;;20.10;54.87
48872;BME280;36154;51.674;7.824;2023-02-23T04:03:55;100395.91;;;20.10;54.60
48872;BME280;36154;51.674;7.824;2023-02-23T04:06:43;100395.06;;;20.10;54.50
48872;BME280;36154;51.674;7.824;2023-02-23T04:09:29;100391.66;;;20.08;54.36
48872;BME280;36154;51.674;7.824;2023-02-23T04:17:33;100395.06;;;20.10;54.53
48872;BME280;36154;51.674;7.824;2023-02-23T04:19:58;100404.50;;;20.11;54.42
48872;BME280;36154;51.674;7.824;2023-02-23T04:22:23;100400.25;;;20.10;54.41
48872;BME280;36154;51.674;7.824;2023-02-23T04:24:49;100399.31;;;20.11;54.48
48872;BME280;36154;51.674;7.824;2023-02-23T04:27:15;100399.31;;;20.11;54.44
48872;BME280;36154;51.674;7.824;2023-02-23T04:29:43;100406.25;;;20.10;54.47
48872;BME280;36154;51.674;7.824;2023-02-23T04:32:13;100402.75;;;20.11;54.56
48872;BME280;36154;51.674;7.824;2023-02-23T04:34:39;100404.50;;;20.11;54.44
48872;BME280;36154;51.674;7.824;2023-02-23T04:37:05;100411.38;;;20.12;54.41
48872;BME280;36154;51.674;7.824;2023-02-23T04:39:32;100413.09;;;20.11;54.23
48872;BME280;36154;51.674;7.824;2023-02-23T04:41:58;100409.63;;;20.12;53.94
48872;BME280;36154;51.674;7.824;2023-02-23T04:44:23;100409.63;;;20.12;54.29
48872;BME280;36154;51.674;7.824;2023-02-23T04:46:49;100407.91;;;20.11;54.37
48872;BME280;36154;51.674;7.824;2023-02-23T04:49:14;100409.63;;;20.12;54.35
48872;BME280;36154;51.674;7.824;2023-02-23T04:51:39;100407.09;;;20.11;54.20
48872;BME280;36154;51.674;7.824;2023-02-23T04:54:04;100401.91;;;20.11;54.24
48872;BME280;36154;51.674;7.824;2023-02-23T04:56:30;100407.09;;;20.11;54.53
48872;BME280;36154;51.674;7.824;2023-02-23T04:58:58;100413.97;;;20.12;54.29
48872;BME280;36154;51.674;7.824;2023-02-23T05:01:24;100413.97;;;20.12;54.09
48872;BME280;36154;51.674;7.824;2023-02-23T05:03:49;100413.97;;;20.12;54.13
48872;BME280;36154;51.674;7.824;2023-02-23T05:06:18;100408.78;;;20.12;54.25
48872;BME280;36154;51.674;7.824;2023-02-23T05:08:43;100413.97;;;20.12;54.33
48872;BME280;36154;51.674;7.824;2023-02-23T05:11:10;100416.56;;;20.12;54.15
48872;BME280;36154;51.674;7.824;2023-02-23T05:13:36;100413.97;;;20.12;54.16
48872;BME280;36154;51.674;7.824;2023-02-23T05:16:01;100413.09;;;20.11;54.22
48872;BME280;36154;51.674;7.824;2023-02-23T05:18:27;100419.13;;;20.12;54.30
48872;BME280;36154;51.674;7.824;2023-02-23T05:20:53;100420.81;;;20.13;54.13
48872;BME280;36154;51.674;7.824;2023-02-23T05:23:25;100419.13;;;20.12;53.93
48872;BME280;36154;51.674;7.824;2023-02-23T05:25:50;100415.63;;;20.13;54.15
48872;BME280;36154;51.674;7.824;2023-02-23T05:28:15;100419.94;;;20.14;54.01
48872;BME280;36154;51.674;7.824;2023-02-23T05:30:40;100418.22;;;20.13;54.11
48872;BME280;36154;51.674;7.824;2023-02-23T05:33:06;100420.81;;;20.13;54.19
48872;BME280;36154;51.674;7.824;2023-02-23T05:35:31;100416.50;;;20.13;54.14
48872;BME280;36154;51.674;7.824;2023-02-23T05:37:56;100425.97;;;20.13;54.24
48872;BME280;36154;51.674;7.824;2023-02-23T05:40:21;100410.47;;;20.13;54.00
48872;BME280;36154;51.674;7.824;2023-02-23T05:42:47;100415.63;;;20.13;54.12
48872;BME280;36154;51.674;7.824;2023-02-23T05:45:12;100415.63;;;20.13;54.21
48872;BME280;36154;51.674;7.824;2023-02-23T05:47:38;100410.47;;;20.13;53.88
48872;BME280;36154;51.674;7.824;2023-02-23T05:50:05;100422.50;;;20.14;54.05
48872;BME280;36154;51.674;7.824;2023-02-23T05:52:31;100416.50;;;20.13;54.05
48872;BME280;36154;51.674;7.824;2023-02-23T05:54:56;100420.81;;;20.13;54.13
48872;BME280;36154;51.674;7.824;2023-02-23T05:57:21;100416.50;;;20.13;54.12
48872;BME280;36154;51.674;7.824;2023-02-23T05:59:47;100420.81;;;20.13;54.16
48872;BME280;36154;51.674;7.824;2023-02-23T06:02:13;100427.69;;;20.14;54.11
48872;BME280;36154;51.674;7.824;2023-02-23T06:04:38;100423.41;;;20.13;54.15
48872;BME280;36154;51.674;7.824;2023-02-23T06:07:03;100425.97;;;20.13;54.06
48872;BME280;36154;51.674;7.824;2023-02-23T06:09:29;100424.25;;;20.13;53.89
48872;BME280;36154;51.674;7.824;2023-02-23T06:11:54;100431.16;;;20.13;54.12
48872;BME280;36154;51.674;7.824;2023-02-23T06:14:19;100436.31;;;20.13;53.97
48872;BME280;36154;51.674;7.824;2023-02-23T06:16:45;100431.16;;;20.13;54.11
48872;BME280;36154;51.674;7.824;2023-02-23T06:19:12;100436.31;;;20.13;54.30
48872;BME280;36154;51.674;7.824;2023-02-23T06:21:37;100434.66;;;20.12;54.08
48872;BME280;36154;51.674;7.824;2023-02-23T06:24:03;100438.91;;;20.13;53.93
48872;BME280;36154;51.674;7.824;2023-02-23T06:26:29;100436.44;;;20.10;53.78
48872;BME280;36154;51.674;7.824;2023-02-23T06:28:54;100439.81;;;20.12;53.94
48872;BME280;36154;51.674;7.824;2023-02-23T06:31:20;100432.13;;;20.10;53.99
48872;BME280;36154;51.674;7.824;2023-02-23T06:33:45;100443.28;;;20.11;53.92
48872;BME280;36154;51.674;7.824;2023-02-23T06:36:11;100444.13;;;20.11;54.26
48872;BME280;36154;51.674;7.824;2023-02-23T06:38:38;100449.31;;;20.11;54.08
48872;BME280;36154;51.674;7.824;2023-02-23T06:41:08;100447.63;;;20.10;53.87
48872;BME280;36154;51.674;7.824;2023-02-23T06:43:34;100458.81;;;20.11;53.82
48872;BME280;36154;51.674;7.824;2023-02-23T06:45:59;100457.94;;;20.12;53.91
48872;BME280;36154;51.674;7.824;2023-02-23T06:48:25;100452.81;;;20.10;53.97
48872;BME280;36154;51.674;7.824;2023-02-23T06:50:50;100464.91;;;20.10;53.95
48872;BME280;36154;51.674;7.824;2023-02-23T06:53:16;100461.41;;;20.11;53.96
48872;BME280;36154;51.674;7.824;2023-02-23T06:55:42;100470.00;;;20.11;53.82
48872;BME280;36154;51.674;7.824;2023-02-23T06:58:07;100469.16;;;20.11;53.86
48872;BME280;36154;51.674;7.824;2023-02-23T07:00:33;100470.06;;;20.10;53.81
48872;BME280;36154;51.674;7.824;2023-02-23T07:02:58;100474.34;;;20.11;53.60
48872;BME280;36154;51.674;7.824;2023-02-23T07:05:26;100478.66;;;20.10;53.91
48872;BME280;36154;51.674;7.824;2023-02-23T07:07:51;100481.25;;;20.10;53.75
48872;BME280;36154;51.674;7.824;2023-02-23T07:10:17;100482.09;;;20.11;54.03
48872;BME280;36154;51.674;7.824;2023-02-23T07:12:42;100477.84;;;20.10;53.91
48872;BME280;36154;51.674;7.824;2023-02-23T07:15:08;100477.84;;;20.10;53.91
48872;BME280;36154;51.674;7.824;2023-02-23T07:17:34;100482.13;;;20.09;53.70
48872;BME280;36154;51.674;7.824;2023-02-23T07:20:00;100483.00;;;20.10;54.17
48872;BME280;36154;51.674;7.824;2023-02-23T07:22:25;100487.31;;;20.09;53.75
48872;BME280;36154;51.674;7.824;2023-02-23T07:24:53;100488.19;;;20.10;53.77
48872;BME280;36154;51.674;7.824;2023-02-23T07:27:19;100486.47;;;20.09;53.86
48872;BME280;36154;51.674;7.824;2023-02-23T07:29:44;100489.06;;;20.09;54.01
48872;BME280;36154;51.674;7.824;2023-02-23T07:32:09;100494.22;;;20.09;53.73
48872;BME280;36154;51.674;7.824;2023-02-23T07:34:34;100490.81;;;20.08;53.77
48872;BME280;36154;51.674;7.824;2023-02-23T07:37:01;100496.81;;;20.09;53.73
48872;BME280;36154;51.674;7.824;2023-02-23T07:39:26;100502.00;;;20.09;53.67
48872;BME280;36154;51.674;7.824;2023-02-23T07:41:52;100500.28;;;20.08;53.64
48872;BME280;36154;51.674;7.824;2023-02-23T07:44:17;100495.97;;;20.08;53.70
48872;BME280;36154;51.674;7.824;2023-02-23T07:46:43;100494.22;;;20.09;53.80
48872;BME280;36154;51.674;7.824;2023-02-23T07:49:10;100500.28;;;20.08;53.71
48872;BME280;36154;51.674;7.824;2023-02-23T07:51:37;100500.28;;;20.08;53.64
48872;BME280;36154;51.674;7.824;2023-02-23T07:54:03;100504.63;;;20.07;53.51
48872;BME280;36154;51.674;7.824;2023-02-23T07:56:29;100506.31;;;20.08;53.66
48872;BME280;36154;51.674;7.824;2023-02-23T07:58:54;100503.78;;;20.07;53.51
48872;BME280;36154;51.674;7.824;2023-02-23T08:01:19;100509.78;;;20.07;53.67
48872;BME280;36154;51.674;7.824;2023-02-23T08:03:44;100518.38;;;20.08;53.55
48872;BME280;36154;51.674;7.824;2023-02-23T08:06:14;100518.38;;;20.08;53.72
48872;BME280;36154;51.674;7.824;2023-02-23T08:08:40;100520.97;;;20.08;53.65
48872;BME280;36154;51.674;7.824;2023-02-23T08:11:05;100520.97;;;20.08;53.56
48872;BME280;36154;51.674;7.824;2023-02-23T08:13:31;100509.88;;;20.04;53.51
48872;BME280;36154;51.674;7.824;2023-02-23T08:15:57;100530.47;;;20.07;53.61
48872;BME280;36154;51.674;7.824;2023-02-23T08:18:22;100523.56;;;20.08;53.72
48872;BME280;36154;51.674;7.824;2023-02-23T08:20:48;100520.13;;;20.07;53.53
48872;BME280;36154;51.674;7.824;2023-02-23T08:23:14;100531.31;;;20.08;53.51
48872;BME280;36154;51.674;7.824;2023-02-23T08:25:41;100529.63;;;20.07;53.56
48872;BME280;36154;51.674;7.824;2023-02-23T08:28:06;100536.50;;;20.08;53.22
48872;BME280;36154;51.674;7.824;2023-02-23T08:30:32;100532.28;;;20.05;53.47
48872;BME280;36154;51.674;7.824;2023-02-23T08:32:57;100537.41;;;20.07;53.68
48872;BME280;36154;51.674;7.824;2023-02-23T08:35:24;100533.09;;;20.06;53.51
48872;BME280;36154;51.674;7.824;2023-02-23T08:37:49;100541.66;;;20.08;53.58
48872;BME280;36154;51.674;7.824;2023-02-23T08:40:14;100540.00;;;20.07;53.51
48872;BME280;36154;51.674;7.824;2023-02-23T08:42:42;100547.75;;;20.07;53.90
48872;BME280;36154;51.674;7.824;2023-02-23T08:45:08;100549.41;;;20.08;53.44
48872;BME280;36154;51.674;7.824;2023-02-23T08:47:34;100547.78;;;20.05;53.37
48872;BME280;36154;51.674;7.824;2023-02-23T08:50:00;100550.34;;;20.07;53.57
48872;BME280;36154;51.674;7.824;2023-02-23T08:52:25;100550.38;;;20.05;53.47
48872;BME280;36154;51.674;7.824;2023-02-23T08:54:50;100552.91;;;20.07;53.29
48872;BME280;36154;51.674;7.824;2023-02-23T08:57:16;100553.78;;;20.06;53.41
48872;BME280;36154;51.674;7.824;2023-02-23T08:59:42;100557.28;;;20.05;53.46
48872;BME280;36154;51.674;7.824;2023-02-23T09:02:11;100554.72;;;20.05;53.28
48872;BME280;36154;51.674;7.824;2023-02-23T09:04:37;100559.81;;;20.06;53.52
48872;BME280;36154;51.674;7.824;2023-02-23T09:07:03;100560.75;;;20.04;53.26
48872;BME280;36154;51.674;7.824;2023-02-23T09:09:28;100564.97;;;20.06;53.41
48872;BME280;36154;51.674;7.824;2023-02-23T09:11:54;100569.28;;;20.07;53.45
48872;BME280;36154;51.674;7.824;2023-02-23T09:14:19;100570.16;;;20.06;52.99
48872;BME280;36154;51.674;7.824;2023-02-23T09:16:45;100569.31;;;20.06;53.14
48872;BME280;36154;51.674;7.824;2023-02-23T09:19:11;100571.91;;;20.06;53.26
48872;BME280;36154;51.674;7.824;2023-02-23T09:21:37;100574.47;;;20.06;53.34
48872;BME280;36154;51.674;7.824;2023-02-23T09:24:02;100578.78;;;20.07;53.37
48872;BME280;36154;51.674;7.824;2023-02-23T09:26:27;100584.84;;;20.06;53.22
48872;BME280;36154;51.674;7.824;2023-02-23T09:28:54;100588.25;;;20.06;53.28
48872;BME280;36154;51.674;7.824;2023-02-23T09:31:21;100575.41;;;20.05;53.23
48872;BME280;36154;51.674;7.824;2023-02-23T09:33:47;100585.66;;;20.06;53.21
48872;BME280;36154;51.674;7.824;2023-02-23T09:36:18;100585.63;;;20.08;53.35
48872;BME280;36154;51.674;7.824;2023-02-23T09:38:50;100582.22;;;20.07;53.42
48872;BME280;36154;51.674;7.824;2023-02-23T09:49:11;100590.00;;;20.06;53.73
48872;BME280;36154;51.674;7.824;2023-02-23T09:51:43;100584.84;;;20.06;53.65
48872;BME280;36154;51.674;7.824;2023-02-23T09:54:11;100591.78;;;20.04;53.77
48872;BME280;36154;51.674;7.824;2023-02-23T09:56:40;100591.78;;;20.04;53.76
48872;BME280;36154;51.674;7.824;2023-02-23T09:59:13;100587.47;;;20.04;53.94
48872;BME280;36154;51.674;7.824;2023-02-23T10:04:18;100596.97;;;20.04;54.29
48872;BME280;36154;51.674;7.824;2023-02-23T10:06:51;100595.22;;;20.04;53.97
48872;BME280;36154;51.674;7.824;2023-02-23T10:18:30;100603.91;;;20.02;53.98
48872;BME280;36154;51.674;7.824;2023-02-23T10:23:36;100609.09;;;20.02;54.06
48872;BME280;36154;51.674;7.824;2023-02-23T10:26:04;100613.41;;;20.01;54.21
48872;BME280;36154;51.674;7.824;2023-02-23T10:28:34;100609.09;;;20.02;54.22
48872;BME280;36154;51.674;7.824;2023-02-23T10:31:01;100609.09;;;20.02;54.50
48872;BME280;36154;51.674;7.824;2023-02-23T10:33:37;100611.69;;;20.02;54.16
48872;BME280;36154;51.674;7.824;2023-02-23T10:36:16;100612.56;;;20.01;54.18
48872;BME280;36154;51.674;7.824;2023-02-23T10:38:44;100614.28;;;20.02;54.21
48872;BME280;36154;51.674;7.824;2023-02-23T10:41:10;100614.28;;;20.02;54.27
48872;BME280;36154;51.674;7.824;2023-02-23T10:43:35;100617.69;;;20.02;54.26
48872;BME280;36154;51.674;7.824;2023-02-23T10:46:01;100611.72;;;20.00;54.33
48872;BME280;36154;51.674;7.824;2023-02-23T10:48:35;100612.56;;;20.01;54.15
48872;BME280;36154;51.674;7.824;2023-02-23T10:51:13;100608.22;;;20.01;54.26
48872;BME280;36154;51.674;7.824;2023-02-23T10:53:41;100612.56;;;20.01;53.99
48872;BME280;36154;51.674;7.824;2023-02-23T10:56:10;100614.28;;;20.02;54.29
48872;BME280;36154;51.674;7.824;2023-02-23T10:58:57;100613.41;;;20.01;54.30
48872;BME280;36154;51.674;7.824;2023-02-23T11:01:43;100618.56;;;20.01;54.33
48872;BME280;36154;51.674;7.824;2023-02-23T11:04:19;100617.72;;;20.01;54.24
48872;BME280;36154;51.674;7.824;2023-02-23T11:06:47;100612.56;;;20.01;54.40
48872;BME280;36154;51.674;7.824;2023-02-23T11:09:26;100612.56;;;20.01;54.41
48872;BME280;36154;51.674;7.824;2023-02-23T11:11:58;100612.56;;;20.01;54.43
48872;BME280;36154;51.674;7.824;2023-02-23T11:14:26;100607.38;;;20.01;54.35
48872;BME280;36154;51.674;7.824;2023-02-23T11:16:54;100604.00;;;19.99;54.31
48872;BME280;36154;51.674;7.824;2023-02-23T11:19:26;100614.28;;;20.02;54.34
48872;BME280;36154;51.674;7.824;2023-02-23T11:21:53;100608.25;;;20.00;54.32
48872;BME280;36154;51.674;7.824;2023-02-23T11:24:27;100609.16;;;19.99;54.44
48872;BME280;36154;51.674;7.824;2023-02-23T11:27:01;100612.63;;;19.98;54.37
48872;BME280;36154;51.674;7.824;2023-02-23T11:29:38;100608.34;;;19.98;54.42
48872;BME280;36154;51.674;7.824;2023-02-23T11:34:36;100606.59;;;19.99;54.49
48872;BME280;36154;51.674;7.824;2023-02-23T11:39:54;100607.38;;;20.01;54.40
48872;BME280;36154;51.674;7.824;2023-02-23T11:42:22;100603.06;;;20.01;54.57
48872;BME280;36154;51.674;7.824;2023-02-23T11:44:51;100594.41;;;20.02;54.44
48872;BME280;36154;51.674;7.824;2023-02-23T11:47:26;100597.88;;;20.01;54.54
48872;BME280;36154;51.674;7.824;2023-02-23T11:49:52;100603.91;;;20.02;54.39
48872;BME280;36154;51.674;7.824;2023-02-23T11:52:21;100598.75;;;20.02;54.63
48872;BME280;36154;51.674;7.824;2023-02-23T11:54:58;100603.06;;;20.01;54.68
48872;BME280;36154;51.674;7.824;2023-02-23T11:57:28;100601.34;;;20.02;54.50
48872;BME280;36154;51.674;7.824;2023-02-23T11:59:55;100608.22;;;20.01;54.82
48872;BME280;36154;51.674;7.824;2023-02-23T12:02:29;100605.63;;;20.01;52.38
48872;BME280;36154;51.674;7.824;2023-02-23T12:05:17;100598.22;;;19.89;50.18
48872;BME280;36154;51.674;7.824;2023-02-23T12:08:04;100592.69;;;19.70;49.04
48872;BME280;36154;51.674;7.824;2023-02-23T12:10:41;100592.88;;;19.61;49.96
48872;BME280;36154;51.674;7.824;2023-02-23T12:15:47;100585.03;;;19.67;51.54
48872;BME280;36154;51.674;7.824;2023-02-23T12:26:55;100590.16;;;20.00;54.11
48872;BME280;36154;51.674;7.824;2023-02-23T12:35:38;100587.91;;;20.20;54.67
48872;BME280;36154;51.674;7.824;2023-02-23T12:38:11;100596.38;;;20.25;54.43
48872;BME280;36154;51.674;7.824;2023-02-23T12:40:39;100593.66;;;20.30;54.40
48872;BME280;36154;51.674;7.824;2023-02-23T12:43:26;100597.00;;;20.34;54.56
48872;BME280;36154;51.674;7.824;2023-02-23T12:46:08;100603.78;;;20.38;54.54
48872;BME280;36154;51.674;7.824;2023-02-23T12:48:46;100604.53;;;20.41;54.55
48872;BME280;36154;51.674;7.824;2023-02-23T12:51:32;100606.19;;;20.44;54.38
48872;BME280;36154;51.674;7.824;2023-02-23T12:53:59;100607.03;;;20.44;54.43
48872;BME280;36154;51.674;7.824;2023-02-23T13:01:35;100612.16;;;20.47;54.35
48872;BME280;36154;51.674;7.824;2023-02-23T13:09:35;100612.13;;;20.49;54.29
48872;BME280;36154;51.674;7.824;2023-02-23T13:17:45;100611.31;;;20.47;54.61
48872;BME280;36154;51.674;7.824;2023-02-23T13:20:38;100607.88;;;20.45;54.78
48872;BME280;36154;51.674;7.824;2023-02-23T13:23:15;100609.66;;;20.43;54.72
48872;BME280;36154;51.674;7.824;2023-02-23T13:28:38;100611.44;;;20.41;54.93
48872;BME280;36154;51.674;7.824;2023-02-23T13:31:18;100608.88;;;20.41;55.00
48872;BME280;36154;51.674;7.824;2023-02-23T13:33:46;100604.56;;;20.40;55.05
48872;BME280;36154;51.674;7.824;2023-02-23T13:36:13;100611.53;;;20.38;55.15
48872;BME280;36154;51.674;7.824;2023-02-23T13:38:49;100613.25;;;20.39;54.94
48872;BME280;36154;51.674;7.824;2023-02-23T13:41:39;100616.72;;;20.38;55.06
48872;BME280;36154;51.674;7.824;2023-02-23T13:44:34;100610.69;;;20.37;55.14
48872;BME280;36154;51.674;7.824;2023-02-23T13:47:13;100613.31;;;20.36;55.15
48872;BME280;36154;51.674;7.824;2023-02-23T13:50:01;100621.97;;;20.35;55.04
48872;BME280;36154;51.674;7.824;2023-02-23T13:52:38;100611.69;;;20.31;55.11
48872;BME280;36154;51.674;7.824;2023-02-23T13:58:05;100621.19;;;20.33;55.22
48872;BME280;36154;51.674;7.824;2023-02-23T14:00:35;100629.81;;;20.31;55.07
48872;BME280;36154;51.674;7.824;2023-02-23T14:03:03;100631.59;;;20.29;55.07
48872;BME280;36154;51.674;7.824;2023-02-23T14:05:30;100634.19;;;20.29;55.06
48872;BME280;36154;51.674;7.824;2023-02-23T14:08:00;100629.00;;;20.29;54.92
48872;BME280;36154;51.674;7.824;2023-02-23T14:10:29;100636.78;;;20.29;54.91
48872;BME280;36154;51.674;7.824;2023-02-23T14:13:25;100636.81;;;20.28;55.16
48872;BME280;36154;51.674;7.824;2023-02-23T14:19:05;100639.44;;;20.26;55.10
48872;BME280;36154;51.674;7.824;2023-02-23T14:24:26;100642.94;;;20.25;54.93
48872;BME280;36154;51.674;7.824;2023-02-23T14:29:38;100645.56;;;20.24;54.75
48872;BME280;36154;51.674;7.824;2023-02-23T14:34:49;100644.72;;;20.23;54.93
48872;BME280;36154;51.674;7.824;2023-02-23T14:37:35;100649.91;;;20.23;54.79
48872;BME280;36154;51.674;7.824;2023-02-23T14:42:29;100650.78;;;20.22;54.97
48872;BME280;36154;51.674;7.824;2023-02-23T14:44:56;100646.47;;;20.21;54.87
48872;BME280;36154;51.674;7.824;2023-02-23T14:47:26;100653.38;;;20.22;55.01
48872;BME280;36154;51.674;7.824;2023-02-23T14:49:59;100647.31;;;20.23;55.04